Terminal Aerodrome Forecast
Issued by NWS Pocatello, ID

Home | Current Version | Previous Version | Text Only | Print | Product List | Glossary On
Versions: 1 2 3 4 5 6 7 8 9 10 11 12 13 14 15 16 17 18 19 20 21 22 23 24 25
000
FTUS45 KPIH 250523
TAFPIH
TAF
KPIH 250523Z 2506/2606 19006KT P6SM SCT030 SCT250
     FM251300 04006KT 6SM BR BKN004
     FM251700 04006KT P6SM FEW004 FEW160
     FM252100 VRB05KT P6SM SCT090 BKN120 BKN160
     FM260200 03006KT P6SM SCT110 SCT180=

USA.gov is the U.S. government's official web portal to all federal, state and local government web resources and services.